createdAt,value
2023-03-28T00:02:58.645Z,1.60
2023-03-28T00:07:00.489Z,1.90
2023-03-28T00:11:19.141Z,1.75
2023-03-28T00:15:20.881Z,2.20
2023-03-28T00:19:25.450Z,1.95
2023-03-28T00:23:27.820Z,1.75
2023-03-28T00:27:29.477Z,2.20
2023-03-28T00:31:32.337Z,1.75
2023-03-28T00:35:35.402Z,1.77
2023-03-28T00:39:37.409Z,2.12
2023-03-28T00:43:41.099Z,1.90
2023-03-28T00:47:52.769Z,1.62
2023-03-28T00:52:01.484Z,1.80
2023-03-28T00:56:08.379Z,1.98
2023-03-28T01:04:20.105Z,2.08
2023-03-28T01:08:25.331Z,2.28
2023-03-28T01:12:27.462Z,2.42
2023-03-28T01:16:32.685Z,2.00
2023-03-28T01:20:35.876Z,2.28
2023-03-28T01:25:07.406Z,2.40
2023-03-28T01:29:32.771Z,2.47
2023-03-28T01:33:52.290Z,2.00
2023-03-28T01:38:36.050Z,2.03
2023-03-28T01:42:53.263Z,2.20
2023-03-28T01:51:20.918Z,2.10
2023-03-28T01:55:48.508Z,2.40
2023-03-28T02:04:20.404Z,1.80
2023-03-28T02:08:26.986Z,2.35
2023-03-28T02:12:40.388Z,1.98
2023-03-28T02:16:44.293Z,2.35
2023-03-28T02:20:53.497Z,2.35
2023-03-28T02:24:56.273Z,2.55
2023-03-28T02:28:59.421Z,2.17
2023-03-28T02:33:02.673Z,2.67
2023-03-28T02:37:30.965Z,2.62
2023-03-28T02:42:02.864Z,2.40
2023-03-28T02:46:28.056Z,2.33
2023-03-28T02:50:44.889Z,2.33
2023-03-28T02:55:03.319Z,2.30
2023-03-28T02:59:24.374Z,2.40
2023-03-28T03:03:26.058Z,2.85
2023-03-28T03:07:28.733Z,2.35
2023-03-28T03:11:31.221Z,2.60
2023-03-28T03:15:35.360Z,2.65
2023-03-28T03:19:37.117Z,2.40
2023-03-28T03:23:38.771Z,2.12
2023-03-28T03:27:40.909Z,2.20
2023-03-28T03:31:43.000Z,2.30
2023-03-28T03:35:47.782Z,2.70
2023-03-28T03:39:49.484Z,2.53
2023-03-28T03:43:51.335Z,2.55
2023-03-28T03:47:53.056Z,2.75
2023-03-28T03:51:54.748Z,2.85
2023-03-28T03:56:01.324Z,2.85
2023-03-28T04:00:14.479Z,2.55
2023-03-28T04:04:16.151Z,2.20
2023-03-28T04:08:17.869Z,2.62
2023-03-28T04:12:19.539Z,2.53
2023-03-28T04:16:21.429Z,2.87
2023-03-28T04:20:29.613Z,2.50
2023-03-28T04:24:31.318Z,2.80
2023-03-28T04:28:32.957Z,2.70
2023-03-28T04:32:35.958Z,2.60
2023-03-28T04:36:40.949Z,2.47
2023-03-28T04:40:44.566Z,2.50
2023-03-28T04:44:46.182Z,2.53
2023-03-28T04:48:47.949Z,2.58
2023-03-28T04:52:49.613Z,2.90
2023-03-28T04:56:51.301Z,2.70
2023-03-28T05:00:53.799Z,2.75
2023-03-28T05:04:55.400Z,11.65
2023-03-28T05:08:57.630Z,4.43
2023-03-28T05:12:59.329Z,3.22
2023-03-28T05:17:00.955Z,3.65
2023-03-28T05:21:02.578Z,2.87
2023-03-28T05:25:06.349Z,3.95
2023-03-28T05:29:07.998Z,5.30
2023-03-28T05:33:09.730Z,3.25
2023-03-28T05:37:11.621Z,3.10
2023-03-28T05:41:13.477Z,3.17
2023-03-28T05:45:15.980Z,7.45
2023-03-28T05:49:17.730Z,3.97
2023-03-28T05:53:20.130Z,3.47
2023-03-28T05:57:22.412Z,3.90
2023-03-28T06:01:28.710Z,4.30
2023-03-28T06:05:31.315Z,4.20
2023-03-28T06:09:34.925Z,3.50
2023-03-28T06:13:36.586Z,3.50
2023-03-28T06:17:38.551Z,3.62
2023-03-28T06:21:40.245Z,3.80
2023-03-28T06:25:41.985Z,3.87
2023-03-28T06:29:43.789Z,3.75
2023-03-28T06:33:45.568Z,3.30
2023-03-28T06:37:47.240Z,3.83
2023-03-28T06:41:48.951Z,4.62
2023-03-28T06:45:50.813Z,5.47
2023-03-28T06:49:52.481Z,4.85
2023-03-28T06:53:54.325Z,5.47
2023-03-28T06:57:56.006Z,5.30
2023-03-28T07:01:57.896Z,5.45
2023-03-28T07:06:07.465Z,5.60
2023-03-28T07:10:09.467Z,5.47
2023-03-28T07:14:11.210Z,5.00
2023-03-28T07:18:12.848Z,6.55
2023-03-28T07:22:14.515Z,5.90
2023-03-28T07:26:16.615Z,4.85
2023-03-28T07:30:18.389Z,5.80
2023-03-28T07:34:20.287Z,5.12
2023-03-28T07:38:22.066Z,5.50
2023-03-28T07:42:23.920Z,5.20
2023-03-28T07:46:25.638Z,4.93
2023-03-28T07:50:27.587Z,5.82
2023-03-28T07:54:33.179Z,4.85
2023-03-28T07:58:34.992Z,4.28
2023-03-28T08:02:36.847Z,5.12
2023-03-28T08:06:40.482Z,4.80
2023-03-28T08:10:45.483Z,4.12
2023-03-28T08:14:47.181Z,4.30
2023-03-28T08:18:57.056Z,3.53
2023-03-28T08:23:06.026Z,4.50
2023-03-28T08:27:07.702Z,4.82
2023-03-28T08:31:14.188Z,4.55
2023-03-28T08:35:16.192Z,4.25
2023-03-28T08:39:18.997Z,4.37
2023-03-28T08:43:54.767Z,3.58
2023-03-28T08:48:15.561Z,3.33
2023-03-28T08:52:19.546Z,3.90
2023-03-28T08:56:21.515Z,3.62
2023-03-28T09:00:33.886Z,3.80
2023-03-28T09:04:36.668Z,3.10
2023-03-28T09:08:54.502Z,2.97
2023-03-28T09:13:21.110Z,3.22
2023-03-28T09:17:29.307Z,3.35
2023-03-28T09:21:48.309Z,2.67
2023-03-28T09:26:16.939Z,2.42
2023-03-28T09:30:22.366Z,3.05
2023-03-28T09:34:39.406Z,1.83
2023-03-28T09:38:46.730Z,1.90
2023-03-28T09:47:12.578Z,1.77
2023-03-28T09:51:19.291Z,1.50
2023-03-28T09:55:27.116Z,1.60
2023-03-28T09:59:31.055Z,1.67
2023-03-28T10:03:32.795Z,1.35
2023-03-28T10:07:42.458Z,1.25
2023-03-28T10:11:48.867Z,0.90
2023-03-28T10:15:51.156Z,1.20
2023-03-28T10:19:58.534Z,1.23
2023-03-28T10:24:08.640Z,1.10
2023-03-28T10:28:32.725Z,1.23
2023-03-28T10:32:34.952Z,1.52
2023-03-28T10:36:42.696Z,0.70
2023-03-28T10:40:53.385Z,0.88
2023-03-28T10:45:02.668Z,0.60
2023-03-28T10:49:17.089Z,0.93
2023-03-28T10:53:55.464Z,0.80
2023-03-28T10:58:02.751Z,1.10
2023-03-28T11:06:26.012Z,0.80
2023-03-28T11:11:04.540Z,1.10
2023-03-28T11:15:06.142Z,1.02
2023-03-28T11:19:10.790Z,1.20
2023-03-28T11:23:53.541Z,0.88
2023-03-28T11:28:21.147Z,0.77
2023-03-28T11:32:42.573Z,1.08
2023-03-28T11:36:53.835Z,0.90
2023-03-28T11:41:07.883Z,0.70
2023-03-28T11:45:12.348Z,1.02
2023-03-28T11:49:33.211Z,0.80
2023-03-28T11:53:41.493Z,0.82
2023-03-28T11:58:01.567Z,0.90
2023-03-28T12:02:29.754Z,0.90
2023-03-28T12:06:56.067Z,0.85
2023-03-28T12:11:25.587Z,0.98
2023-03-28T12:15:56.025Z,0.70
2023-03-28T12:19:58.914Z,0.88
2023-03-28T12:24:03.700Z,1.23
2023-03-28T12:28:33.125Z,0.93
2023-03-28T12:33:15.431Z,0.80
2023-03-28T12:37:29.940Z,1.05
2023-03-28T12:41:37.488Z,0.80
2023-03-28T12:45:45.276Z,1.12
2023-03-28T12:49:53.097Z,0.80
2023-03-28T12:54:09.029Z,0.70
2023-03-28T12:58:28.089Z,0.68
2023-03-28T13:02:29.748Z,0.68
2023-03-28T13:06:42.065Z,1.00
2023-03-28T13:11:08.583Z,0.98
2023-03-28T13:15:13.301Z,0.82
2023-03-28T13:19:18.487Z,0.88
2023-03-28T13:23:33.621Z,0.82
2023-03-28T13:27:35.457Z,0.82
2023-03-28T13:31:43.404Z,0.77
2023-03-28T13:36:09.218Z,0.77
2023-03-28T13:40:51.075Z,0.80
2023-03-28T13:44:57.126Z,0.77
2023-03-28T13:49:18.928Z,1.00
2023-03-28T13:53:20.926Z,1.45
2023-03-28T13:57:26.374Z,0.90
2023-03-28T14:01:55.802Z,0.68
2023-03-28T14:05:57.627Z,0.88
2023-03-28T14:09:59.302Z,0.90
2023-03-28T14:14:12.842Z,1.02
2023-03-28T14:18:36.562Z,0.90
2023-03-28T14:22:49.324Z,0.90
2023-03-28T14:27:09.442Z,0.98
2023-03-28T14:31:28.203Z,0.90
2023-03-28T14:39:38.788Z,1.27
2023-03-28T14:43:40.767Z,1.10
2023-03-28T14:47:42.501Z,1.00
2023-03-28T14:51:48.576Z,1.27
2023-03-28T14:55:51.996Z,1.33
2023-03-28T14:59:56.876Z,1.05
2023-03-28T15:04:05.114Z,1.20
2023-03-28T15:08:22.626Z,1.23
2023-03-28T15:12:24.588Z,1.10
2023-03-28T15:16:27.484Z,1.10
2023-03-28T15:20:33.441Z,1.27
2023-03-28T15:24:37.105Z,1.45
2023-03-28T15:28:39.948Z,1.25
2023-03-28T15:32:42.357Z,1.42
2023-03-28T15:37:06.731Z,1.15
2023-03-28T15:41:22.921Z,1.30
2023-03-28T15:45:41.424Z,1.17
2023-03-28T15:49:43.285Z,1.10
2023-03-28T15:53:47.172Z,1.30
2023-03-28T15:57:48.962Z,1.15
2023-03-28T16:01:51.184Z,1.20
2023-03-28T16:06:09.476Z,1.10
2023-03-28T16:10:19.708Z,1.00
2023-03-28T16:14:21.661Z,1.30
2023-03-28T16:18:23.368Z,1.17
2023-03-28T16:22:25.546Z,1.10
2023-03-28T16:26:27.753Z,1.77
2023-03-28T16:30:37.894Z,1.17
2023-03-28T16:34:40.485Z,1.00
2023-03-28T16:38:42.144Z,1.02
2023-03-28T16:42:44.228Z,1.10
2023-03-28T16:46:46.111Z,1.25
2023-03-28T16:50:58.554Z,1.20
2023-03-28T16:55:00.244Z,1.10
2023-03-28T16:59:04.067Z,1.00
2023-03-28T17:03:05.907Z,1.05
2023-03-28T17:07:07.887Z,1.42
2023-03-28T17:11:11.953Z,1.40
2023-03-28T17:15:13.630Z,0.95
2023-03-28T17:19:19.040Z,1.25
2023-03-28T17:23:20.851Z,1.00
2023-03-28T17:27:23.265Z,0.95
2023-03-28T17:31:25.544Z,1.15
2023-03-28T17:35:27.373Z,1.10
2023-03-28T17:39:29.038Z,1.20
2023-03-28T17:43:30.763Z,1.17
2023-03-28T17:47:32.544Z,1.25
2023-03-28T17:51:34.373Z,1.33
2023-03-28T17:55:36.184Z,1.20
2023-03-28T17:59:37.934Z,1.25
2023-03-28T18:03:39.764Z,1.12
2023-03-28T18:07:41.802Z,1.42
2023-03-28T18:11:43.400Z,1.52
2023-03-28T18:15:45.152Z,1.70
2023-03-28T18:19:46.756Z,1.23
2023-03-28T18:23:48.556Z,1.55
2023-03-28T18:27:50.537Z,1.25
2023-03-28T18:31:52.265Z,1.40
2023-03-28T18:35:54.331Z,1.80
2023-03-28T18:39:55.981Z,1.45
2023-03-28T18:43:57.836Z,1.67
2023-03-28T18:47:59.534Z,1.42
2023-03-28T18:52:04.287Z,1.37
2023-03-28T18:56:07.714Z,1.30
2023-03-28T19:00:18.362Z,1.70
2023-03-28T19:04:23.100Z,1.40
2023-03-28T19:08:26.137Z,1.75
2023-03-28T19:12:27.776Z,1.70
2023-03-28T19:16:29.566Z,1.30
2023-03-28T19:20:31.591Z,1.30
2023-03-28T19:24:33.700Z,0.88
2023-03-28T19:28:36.166Z,1.40
2023-03-28T19:32:37.928Z,1.27
2023-03-28T19:36:39.684Z,1.27
2023-03-28T19:40:41.331Z,1.58
2023-03-28T19:44:43.491Z,1.58
2023-03-28T19:48:45.271Z,1.60
2023-03-28T19:52:47.126Z,1.40
2023-03-28T19:56:48.927Z,2.40
2023-03-28T20:00:51.048Z,1.70
2023-03-28T20:04:52.720Z,2.08
2023-03-28T20:08:54.431Z,2.05
2023-03-28T20:12:56.038Z,1.90
2023-03-28T20:16:57.838Z,1.70
2023-03-28T20:21:01.417Z,1.80
2023-03-28T20:25:03.373Z,2.15
2023-03-28T20:29:05.054Z,1.90
2023-03-28T20:33:07.361Z,1.75
2023-03-28T20:37:09.004Z,2.28
2023-03-28T20:41:16.477Z,1.90
2023-03-28T20:45:22.334Z,2.20
2023-03-28T20:49:24.633Z,2.15
2023-03-28T20:53:26.551Z,2.58
2023-03-28T20:57:30.224Z,2.65
2023-03-28T21:01:33.097Z,2.67
2023-03-28T21:05:34.938Z,3.40
2023-03-28T21:09:38.524Z,2.87
2023-03-28T21:13:40.434Z,2.97
2023-03-28T21:17:42.477Z,2.85
2023-03-28T21:21:44.165Z,2.62
2023-03-28T21:25:47.767Z,2.40
2023-03-28T21:29:49.365Z,2.90
2023-03-28T21:33:52.607Z,2.47
2023-03-28T21:37:54.281Z,2.08
2023-03-28T21:41:56.517Z,2.25
2023-03-28T21:45:58.178Z,2.20
2023-03-28T21:50:00.267Z,1.98
2023-03-28T21:54:02.701Z,2.22
2023-03-28T21:58:04.373Z,2.03
2023-03-28T22:02:06.097Z,1.90
2023-03-28T22:06:08.395Z,2.70
2023-03-28T22:10:10.845Z,2.80
2023-03-28T22:14:12.729Z,2.90
2023-03-28T22:18:15.582Z,3.00
2023-03-28T22:22:17.811Z,3.72
2023-03-28T22:26:19.517Z,3.25
2023-03-28T22:30:21.428Z,3.37
2023-03-28T22:34:23.146Z,3.30
2023-03-28T22:38:24.842Z,3.12
2023-03-28T22:42:27.024Z,2.87
2023-03-28T22:46:29.855Z,2.83
2023-03-28T22:50:33.524Z,2.65
2023-03-28T22:54:36.833Z,3.10
2023-03-28T22:58:38.583Z,2.42
2023-03-28T23:02:41.422Z,2.50
2023-03-28T23:06:44.580Z,2.75
2023-03-28T23:10:47.208Z,3.03
2023-03-28T23:14:48.854Z,3.03
2023-03-28T23:18:50.662Z,2.33
2023-03-28T23:22:53.529Z,2.60
2023-03-28T23:26:56.015Z,2.33
2023-03-28T23:30:57.682Z,2.55
2023-03-28T23:34:59.520Z,2.78
2023-03-28T23:39:01.533Z,2.33
2023-03-28T23:43:03.184Z,2.40
2023-03-28T23:47:05.641Z,2.08
2023-03-28T23:51:07.464Z,2.10
2023-03-28T23:55:09.814Z,2.22
2023-03-28T23:59:11.936Z,2.20
